Time;durP1;ratioP1;P1;durP2;ratioP2;P2;SDS_P1;SDS_P2;PMS_P1;PMS_P2;Temp;Humidity;BMP_temperature;BMP_pressure;BME280_temperature;BME280_humidity;BME280_pressure;Samples;Min_cycle;Max_cycle;Signal;HPM_P1;HPM_P2
2023/03/28 00:01:11;;;;;;;9.40;2.17;;;4.70;66.90;;;;;;5069545;28;20044;-78
2023/03/28 00:03:41;;;;;;;7.47;1.58;;;5.20;67.30;;;;;;5022400;28;20425;-78
2023/03/28 00:06:12;;;;;;;6.63;1.38;;;4.70;67.00;;;;;;4962253;28;20038;-77
2023/03/28 00:08:39;;;;;;;7.90;1.50;;;4.70;67.10;;;;;;4968633;28;20172;-78
2023/03/28 00:11:08;;;;;;;6.55;1.77;;;4.80;67.10;;;;;;4954347;28;20451;-77
2023/03/28 00:13:35;;;;;;;7.60;1.92;;;4.70;67.00;;;;;;4969991;28;20054;-77
2023/03/28 00:16:09;;;;;;;5.32;1.30;;;4.80;67.10;;;;;;4970159;28;20035;-77
2023/03/28 00:18:38;;;;;;;5.32;1.50;;;4.80;67.10;;;;;;4991857;28;20092;-77
2023/03/28 00:21:06;;;;;;;7.20;1.40;;;4.90;67.10;;;;;;4941441;28;20039;-77
2023/03/28 00:23:34;;;;;;;9.25;1.83;;;4.80;67.00;;;;;;4969434;28;20039;-77
2023/03/28 00:26:06;;;;;;;6.35;1.42;;;4.80;67.00;;;;;;4970001;28;20043;-77
2023/03/28 00:28:34;;;;;;;8.25;1.77;;;4.80;66.90;;;;;;4938688;28;20073;-77
2023/03/28 00:31:07;;;;;;;7.65;1.60;;;4.80;66.90;;;;;;4954250;28;20134;-77
2023/03/28 00:33:33;;;;;;;6.85;1.50;;;4.80;66.90;;;;;;4981316;28;20477;-77
2023/03/28 00:35:59;;;;;;;6.28;1.38;;;4.80;66.90;;;;;;4956526;28;20042;-77
2023/03/28 00:38:26;;;;;;;5.63;1.40;;;4.80;66.90;;;;;;4969177;28;20120;-77
2023/03/28 00:40:56;;;;;;;5.07;1.10;;;4.80;66.90;;;;;;4970915;28;20051;-77
2023/03/28 00:43:45;;;;;;;7.60;1.30;;;4.80;67.00;;;;;;5035030;28;20086;-77
2023/03/28 00:46:32;;;;;;;5.80;1.60;;;4.80;67.00;;;;;;4969846;28;20042;-77
2023/03/28 00:49:16;;;;;;;8.10;1.92;;;4.80;67.00;;;;;;4974397;28;20043;-77
2023/03/28 00:51:46;;;;;;;5.47;1.30;;;4.80;67.00;;;;;;5054655;28;20036;-77
2023/03/28 00:54:16;;;;;;;7.13;1.50;;;4.80;67.00;;;;;;4973340;28;20054;-77
2023/03/28 00:56:46;;;;;;;5.95;1.40;;;4.80;67.00;;;;;;5001778;28;20198;-77
2023/03/28 00:59:16;;;;;;;6.15;1.38;;;4.80;67.10;;;;;;5109242;28;20106;-77
2023/03/28 01:01:43;;;;;;;6.60;1.40;;;5.00;67.20;;;;;;4983760;28;20047;-77
2023/03/28 01:04:08;;;;;;;7.13;1.65;;;5.10;67.20;;;;;;4972780;28;20043;-77
2023/03/28 01:06:39;;;;;;;5.22;1.45;;;4.80;67.00;;;;;;5048205;28;20041;-77
2023/03/28 01:09:06;;;;;;;9.90;1.90;;;4.80;67.00;;;;;;4976823;28;20093;-77
2023/03/28 01:11:35;;;;;;;3.90;1.20;;;4.70;67.00;;;;;;4972669;28;20126;-77
2023/03/28 01:14:03;;;;;;;4.28;1.30;;;4.70;67.00;;;;;;5006991;28;20034;-77
2023/03/28 01:16:29;;;;;;;8.98;1.92;;;4.70;66.90;;;;;;4975522;28;20043;-77
2023/03/28 01:19:00;;;;;;;5.50;1.35;;;4.70;67.00;;;;;;4972705;28;20054;-77
2023/03/28 01:21:52;;;;;;;6.57;1.30;;;4.70;67.00;;;;;;5014247;28;20098;-77
2023/03/28 01:24:38;;;;;;;6.95;1.95;;;4.70;66.90;;;;;;4994931;28;20115;-77
2023/03/28 01:27:42;;;;;;;15.75;3.55;;;4.70;66.90;;;;;;4975824;28;20046;-77
2023/03/28 01:30:23;;;;;;;9.07;1.65;;;4.70;67.00;;;;;;4981729;28;20054;-77
2023/03/28 01:33:26;;;;;;;8.43;1.67;;;4.60;67.20;;;;;;4956197;28;20085;-77
2023/03/28 01:36:04;;;;;;;7.28;1.88;;;4.60;67.30;;;;;;4972367;28;20532;-77
2023/03/28 01:38:53;;;;;;;7.43;1.40;;;4.60;67.30;;;;;;4985697;28;20456;-77
2023/03/28 01:41:34;;;;;;;8.27;1.20;;;4.60;67.30;;;;;;5001586;28;20053;-77
2023/03/28 01:44:33;;;;;;;6.55;1.30;;;4.60;67.40;;;;;;5000813;28;20037;-77
2023/03/28 01:47:18;;;;;;;6.32;1.33;;;4.60;67.40;;;;;;4976419;28;20043;-77
2023/03/28 01:50:05;;;;;;;8.85;1.92;;;4.50;67.40;;;;;;4971496;28;20051;-77
2023/03/28 01:52:39;;;;;;;2.80;0.88;;;4.50;67.50;;;;;;5003814;28;20430;-77
2023/03/28 01:55:22;;;;;;;6.15;1.52;;;4.50;67.60;;;;;;4972102;28;20130;-77
2023/03/28 01:58:00;;;;;;;7.40;1.20;;;4.50;67.70;;;;;;4958495;28;20039;-77
2023/03/28 02:00:36;;;;;;;7.32;1.13;;;4.50;67.80;;;;;;4972291;28;20387;-77
2023/03/28 02:03:10;;;;;;;5.20;2.05;;;4.60;67.90;;;;;;4971988;28;20042;-77
2023/03/28 02:05:38;;;;;;;4.28;1.33;;;4.50;68.00;;;;;;4956380;28;20038;-77
2023/03/28 02:08:07;;;;;;;9.25;1.88;;;4.50;68.10;;;;;;4971884;28;20047;-77
2023/03/28 02:10:35;;;;;;;6.80;1.60;;;4.50;68.10;;;;;;4973697;28;20118;-77
2023/03/28 02:13:17;;;;;;;6.57;1.00;;;4.50;68.20;;;;;;4973864;28;20046;-77
2023/03/28 02:15:47;;;;;;;4.72;1.63;;;4.50;68.30;;;;;;4994336;28;20030;-77
2023/03/28 02:18:22;;;;;;;5.68;1.17;;;4.50;68.30;;;;;;4957994;28;20501;-77
2023/03/28 02:20:54;;;;;;;3.53;1.30;;;4.50;68.30;;;;;;4977448;28;20038;-77
2023/03/28 02:23:26;;;;;;;7.20;1.52;;;4.50;68.30;;;;;;4975163;28;20077;-77
2023/03/28 02:25:52;;;;;;;7.75;1.38;;;4.50;68.30;;;;;;4981465;28;20050;-77
2023/03/28 02:28:18;;;;;;;6.45;1.13;;;4.50;68.30;;;;;;4971626;28;20418;-77
2023/03/28 02:30:44;;;;;;;7.30;1.50;;;4.50;68.20;;;;;;4972245;28;20494;-77
2023/03/28 02:33:42;;;;;;;9.05;1.25;;;4.50;68.20;;;;;;4955306;28;20043;-77
2023/03/28 02:36:26;;;;;;;6.70;1.30;;;4.50;68.20;;;;;;5012306;28;20507;-77
2023/03/28 02:39:01;;;;;;;7.17;1.83;;;4.50;68.20;;;;;;5056633;28;20047;-77
2023/03/28 02:42:04;;;;;;;6.28;1.20;;;4.50;68.20;;;;;;5049387;28;20118;-77
2023/03/28 02:44:44;;;;;;;4.88;1.25;;;4.40;68.10;;;;;;4973430;28;20397;-77
2023/03/28 02:47:16;;;;;;;4.32;1.38;;;4.50;68.10;;;;;;4955238;28;20046;-77
2023/03/28 02:49:56;;;;;;;9.48;1.80;;;4.40;68.10;;;;;;4971348;28;20096;-77
2023/03/28 02:53:17;;;;;;;5.80;1.83;;;4.40;68.20;;;;;;4974824;28;20088;-77
2023/03/28 02:55:45;;;;;;;9.63;1.60;;;4.40;68.20;;;;;;4944485;28;20049;-77
2023/03/28 02:58:25;;;;;;;5.88;1.30;;;4.40;68.20;;;;;;4974468;28;20038;-77
2023/03/28 03:00:51;;;;;;;3.80;1.15;;;4.50;68.30;;;;;;5064504;28;20393;-77
2023/03/28 03:03:16;;;;;;;7.05;1.10;;;4.40;68.30;;;;;;4970996;28;20038;-77
2023/03/28 03:05:42;;;;;;;5.75;1.55;;;4.40;68.30;;;;;;4971144;28;20065;-76
2023/03/28 03:08:09;;;;;;;8.43;1.80;;;4.40;68.30;;;;;;4971090;28;20074;-76
2023/03/28 03:10:35;;;;;;;4.80;1.30;;;4.40;68.40;;;;;;4954873;28;20042;-76
2023/03/28 03:13:01;;;;;;;4.80;1.20;;;4.40;68.40;;;;;;4971014;28;20046;-76
2023/03/28 03:15:29;;;;;;;9.10;1.70;;;4.30;68.30;;;;;;4954229;28;20034;-77
2023/03/28 03:17:57;;;;;;;4.50;1.38;;;4.60;68.50;;;;;;5056565;28;20085;-77
2023/03/28 03:20:27;;;;;;;6.93;1.70;;;4.40;68.40;;;;;;4980925;28;20406;-77
2023/03/28 03:22:54;;;;;;;6.68;1.60;;;4.30;68.30;;;;;;5036439;28;20126;-77
2023/03/28 03:25:19;;;;;;;7.15;1.63;;;4.40;68.40;;;;;;4955014;28;20069;-77
2023/03/28 03:27:45;;;;;;;5.85;1.10;;;4.30;68.40;;;;;;4974737;28;20478;-77
2023/03/28 03:30:11;;;;;;;5.68;1.52;;;4.30;68.40;;;;;;5058493;28;20054;-77
2023/03/28 03:32:38;;;;;;;6.28;1.25;;;4.30;68.40;;;;;;4989999;28;20034;-77
2023/03/28 03:35:05;;;;;;;5.72;1.50;;;4.30;68.40;;;;;;4955866;28;20043;-77
2023/03/28 03:37:31;;;;;;;3.92;1.27;;;4.30;68.50;;;;;;4964298;28;20038;-77
2023/03/28 03:39:56;;;;;;;10.95;1.70;;;4.30;68.50;;;;;;4938759;28;20046;-77
2023/03/28 03:42:22;;;;;;;9.38;1.33;;;4.30;68.50;;;;;;4970805;28;20045;-77
2023/03/28 03:44:48;;;;;;;4.07;1.10;;;4.20;68.40;;;;;;5038908;28;20050;-77
2023/03/28 03:47:16;;;;;;;6.05;1.15;;;4.30;68.50;;;;;;5072040;28;20509;-77
2023/03/28 03:49:42;;;;;;;6.85;1.30;;;4.30;68.50;;;;;;5072045;28;20061;-77
2023/03/28 03:52:07;;;;;;;6.95;1.60;;;4.20;68.40;;;;;;4954496;28;20612;-77
2023/03/28 03:54:34;;;;;;;9.70;2.05;;;4.20;68.40;;;;;;4970357;28;20505;-77
2023/03/28 03:57:01;;;;;;;5.47;1.00;;;4.20;68.50;;;;;;5071958;28;20043;-78
2023/03/28 03:59:27;;;;;;;6.00;1.42;;;4.20;68.50;;;;;;4970615;28;20465;-78
2023/03/28 04:01:54;;;;;;;8.85;1.75;;;4.20;68.50;;;;;;5021330;28;20074;-78
2023/03/28 04:04:20;;;;;;;6.47;1.42;;;4.20;68.60;;;;;;4954299;28;20046;-77
2023/03/28 04:06:46;;;;;;;6.50;1.52;;;4.20;68.70;;;;;;4970073;28;20053;-77
2023/03/28 04:09:12;;;;;;;6.00;1.27;;;4.20;68.80;;;;;;4967051;28;20127;-77
2023/03/28 04:11:37;;;;;;;7.25;1.10;;;4.20;68.90;;;;;;4938132;28;20463;-77
2023/03/28 04:14:03;;;;;;;10.15;1.77;;;4.20;69.00;;;;;;4954403;28;20140;-77
2023/03/28 04:16:30;;;;;;;4.78;1.05;;;4.20;69.10;;;;;;4979860;28;20044;-77
2023/03/28 04:18:56;;;;;;;3.78;1.27;;;4.10;69.10;;;;;;4971770;28;20035;-77
2023/03/28 04:21:29;;;;;;;4.97;1.20;;;4.30;69.30;;;;;;4953733;28;20043;-77
2023/03/28 04:23:55;;;;;;;3.80;1.00;;;4.20;69.30;;;;;;4970132;28;20062;-77
2023/03/28 04:26:24;;;;;;;6.03;1.33;;;4.30;69.40;;;;;;4953868;28;20039;-78
2023/03/28 04:28:54;;;;;;;7.25;1.60;;;4.20;69.50;;;;;;5035962;28;20054;-78
2023/03/28 04:31:28;;;;;;;4.68;1.00;;;4.20;69.60;;;;;;5000120;28;20040;-78
2023/03/28 04:33:54;;;;;;;7.00;1.17;;;4.20;69.70;;;;;;4957215;28;20077;-78
2023/03/28 04:36:21;;;;;;;5.28;1.27;;;4.50;69.90;;;;;;4957352;28;20125;-77
2023/03/28 04:38:47;;;;;;;3.85;1.10;;;4.20;69.80;;;;;;4972960;28;20105;-77
2023/03/28 04:41:15;;;;;;;4.43;1.10;;;4.20;69.80;;;;;;4973410;28;20184;-77
2023/03/28 04:43:42;;;;;;;8.05;1.58;;;4.20;69.80;;;;;;4959687;28;20058;-78
2023/03/28 04:46:08;;;;;;;5.53;1.20;;;4.40;70.00;;;;;;5013964;28;21652;-77
2023/03/28 04:48:33;;;;;;;4.85;1.25;;;4.20;69.90;;;;;;4975713;28;20127;-77
2023/03/28 04:50:59;;;;;;;4.70;0.95;;;4.20;69.90;;;;;;4957018;28;20049;-77
2023/03/28 04:53:25;;;;;;;4.60;1.20;;;4.30;70.50;;;;;;4956862;28;20130;-78
2023/03/28 04:55:51;;;;;;;5.00;1.13;;;4.30;70.00;;;;;;4973243;28;20043;-78
2023/03/28 04:58:18;;;;;;;7.13;1.38;;;4.30;70.10;;;;;;4972986;28;20540;-77
2023/03/28 05:00:44;;;;;;;3.88;1.05;;;4.30;70.10;;;;;;5024405;28;20034;-78
2023/03/28 05:03:17;;;;;;;6.10;1.45;;;4.30;70.10;;;;;;5040923;28;20097;-79
2023/03/28 05:05:44;;;;;;;5.18;1.63;;;4.30;70.10;;;;;;4956478;28;20075;-77
2023/03/28 05:08:14;;;;;;;7.45;1.35;;;4.30;70.10;;;;;;4972800;28;20395;-77
2023/03/28 05:10:40;;;;;;;5.32;1.30;;;4.30;70.20;;;;;;4972769;28;20074;-77
2023/03/28 05:13:06;;;;;;;4.18;1.13;;;4.30;70.20;;;;;;4972871;28;20077;-77
2023/03/28 05:15:32;;;;;;;5.93;1.63;;;4.40;70.30;;;;;;5068319;28;20076;-77
2023/03/28 05:17:58;;;;;;;4.68;1.10;;;4.40;70.30;;;;;;4971477;28;20038;-78
2023/03/28 05:20:25;;;;;;;6.50;1.38;;;4.30;70.20;;;;;;4992923;28;20037;-77
2023/03/28 05:22:51;;;;;;;4.00;1.15;;;4.30;70.20;;;;;;5058278;28;20388;-77
2023/03/28 05:25:16;;;;;;;7.55;1.88;;;4.30;70.20;;;;;;5062181;28;20046;-77
2023/03/28 05:27:42;;;;;;;4.97;1.52;;;4.40;70.30;;;;;;5075110;28;20151;-78
2023/03/28 05:30:09;;;;;;;8.10;2.10;;;4.60;70.50;;;;;;5074593;28;20374;-78
2023/03/28 05:32:38;;;;;;;6.50;1.42;;;4.40;70.40;;;;;;4970588;28;20042;-77
2023/03/28 05:35:06;;;;;;;6.00;1.10;;;4.60;70.50;;;;;;4941039;28;20046;-77
2023/03/28 05:37:32;;;;;;;6.38;1.17;;;4.40;70.40;;;;;;4976459;28;20451;-78
2023/03/28 05:39:58;;;;;;;4.45;1.08;;;4.40;70.40;;;;;;5042472;28;20034;-78
2023/03/28 05:42:24;;;;;;;9.05;1.15;;;4.40;70.30;;;;;;4972551;28;20050;-78
2023/03/28 05:44:50;;;;;;;2.25;0.95;;;4.40;70.40;;;;;;4972863;28;20115;-78
2023/03/28 05:47:16;;;;;;;5.68;0.93;;;4.40;70.30;;;;;;4956409;28;20569;-78
2023/03/28 05:49:42;;;;;;;7.78;1.20;;;4.40;70.40;;;;;;4972442;28;20042;-78
2023/03/28 05:52:07;;;;;;;4.53;0.80;;;4.60;70.50;;;;;;5057424;28;20157;-78
2023/03/28 05:54:33;;;;;;;4.68;1.35;;;4.50;70.60;;;;;;4972097;28;20093;-78
2023/03/28 05:56:59;;;;;;;8.63;1.20;;;4.50;71.00;;;;;;5040353;28;20431;-77
2023/03/28 05:59:24;;;;;;;6.40;1.50;;;4.60;71.70;;;;;;4956370;28;20199;-77
2023/03/28 06:01:54;;;;;;;5.00;1.05;;;4.60;71.80;;;;;;4956319;28;20047;-77
2023/03/28 06:04:20;;;;;;;4.53;1.40;;;4.80;72.10;;;;;;4956613;28;20046;-78
2023/03/28 06:06:47;;;;;;;7.47;1.80;;;4.90;72.00;;;;;;4956147;28;20058;-77
2023/03/28 06:09:14;;;;;;;7.47;1.70;;;5.10;71.90;;;;;;5032967;28;20041;-77
2023/03/28 06:11:41;;;;;;;9.52;2.15;;;5.20;71.80;;;;;;5028776;28;20115;-76
2023/03/28 06:14:07;;;;;;;6.28;1.35;;;5.50;71.90;;;;;;5073804;28;20051;-76
2023/03/28 06:16:34;;;;;;;8.02;1.80;;;5.80;71.80;;;;;;5073853;28;20043;-76
2023/03/28 06:18:59;;;;;;;7.00;1.33;;;6.10;71.20;;;;;;5073635;28;20037;-76
2023/03/28 06:21:25;;;;;;;6.30;1.60;;;6.40;70.40;;;;;;5056753;28;20105;-76
2023/03/28 06:23:51;;;;;;;8.00;2.15;;;6.90;69.50;;;;;;5067378;28;20044;-76
2023/03/28 06:26:17;;;;;;;5.53;1.33;;;7.30;68.40;;;;;;4971753;28;20065;-76
2023/03/28 06:28:43;;;;;;;6.05;1.60;;;7.70;67.50;;;;;;4955721;28;20047;-77
2023/03/28 06:31:13;;;;;;;7.93;2.10;;;8.10;66.40;;;;;;4955566;28;20108;-77
2023/03/28 06:33:40;;;;;;;7.15;1.80;;;8.40;65.80;;;;;;4955597;28;20047;-77
2023/03/28 06:36:10;;;;;;;6.80;1.50;;;8.80;65.20;;;;;;4971888;28;20046;-77
2023/03/28 06:38:36;;;;;;;7.65;1.85;;;9.10;64.30;;;;;;4971170;28;20134;-77
2023/03/28 06:41:02;;;;;;;6.00;1.85;;;9.30;63.30;;;;;;4955868;28;20364;-77
2023/03/28 06:43:30;;;;;;;10.65;2.22;;;9.40;62.30;;;;;;4971620;28;20486;-77
2023/03/28 06:45:56;;;;;;;8.25;1.50;;;9.40;61.70;;;;;;4971867;28;20047;-76
2023/03/28 06:48:22;;;;;;;8.82;1.88;;;9.40;61.40;;;;;;4955450;28;20046;-76
2023/03/28 06:50:50;;;;;;;8.30;2.10;;;9.30;61.30;;;;;;4972512;28;20039;-77
2023/03/28 06:53:16;;;;;;;7.93;1.73;;;9.30;60.80;;;;;;4956608;28;20390;-76
2023/03/28 06:55:42;;;;;;;8.05;2.33;;;9.30;60.60;;;;;;4989782;28;20047;-76
2023/03/28 06:58:08;;;;;;;8.98;3.03;;;9.20;60.50;;;;;;4972862;28;20039;-77
2023/03/28 07:00:34;;;;;;;6.65;2.58;;;9.20;60.00;;;;;;4971868;28;20042;-76
2023/03/28 07:03:00;;;;;;;9.35;2.83;;;9.10;60.20;;;;;;4971565;28;20541;-76
2023/03/28 07:05:25;;;;;;;6.40;2.97;;;9.00;59.90;;;;;;4971382;28;20076;-76
2023/03/28 07:07:51;;;;;;;10.45;3.53;;;9.00;59.90;;;;;;4939548;28;20403;-76
2023/03/28 07:10:17;;;;;;;12.90;4.32;;;8.90;59.90;;;;;;4971410;28;20092;-76
2023/03/28 07:12:43;;;;;;;14.15;5.60;;;8.80;60.10;;;;;;4955295;28;20047;-77
2023/03/28 07:15:09;;;;;;;13.73;4.95;;;8.80;60.60;;;;;;4955506;28;20042;-77
2023/03/28 07:17:36;;;;;;;17.20;5.95;;;8.70;61.20;;;;;;4955162;28;20073;-76
2023/03/28 07:20:03;;;;;;;15.93;6.72;;;8.80;61.50;;;;;;4971166;28;20394;-77
2023/03/28 07:22:29;;;;;;;13.73;5.65;;;8.80;61.70;;;;;;4987747;28;20398;-76
2023/03/28 07:24:55;;;;;;;10.48;4.85;;;8.80;61.50;;;;;;4970840;28;20553;-77
2023/03/28 07:27:20;;;;;;;13.82;5.63;;;8.80;61.40;;;;;;5038818;28;20078;-77
2023/03/28 07:29:46;;;;;;;15.65;5.97;;;8.80;61.30;;;;;;4970942;28;20490;-77
2023/03/28 07:32:12;;;;;;;11.18;4.75;;;8.80;61.30;;;;;;4954499;28;20133;-77
2023/03/28 07:34:38;;;;;;;9.40;4.35;;;8.80;61.30;;;;;;4954776;28;20038;-77
2023/03/28 07:37:04;;;;;;;12.05;4.05;;;8.80;61.00;;;;;;4970773;28;20406;-77
2023/03/28 07:39:29;;;;;;;10.85;4.28;;;8.80;60.60;;;;;;4954597;28;20038;-77
2023/03/28 07:41:55;;;;;;;11.98;4.20;;;8.80;60.80;;;;;;4954968;28;20130;-77
2023/03/28 07:44:21;;;;;;;9.40;3.70;;;8.80;61.00;;;;;;4938489;28;20478;-76
2023/03/28 07:46:47;;;;;;;12.13;3.50;;;8.80;60.80;;;;;;4970545;28;20043;-76
2023/03/28 07:49:14;;;;;;;9.88;3.78;;;8.80;60.80;;;;;;4970524;28;20422;-77
2023/03/28 07:51:40;;;;;;;9.43;3.42;;;8.80;60.90;;;;;;4970621;28;20456;-77
2023/03/28 07:54:06;;;;;;;10.07;3.38;;;8.80;61.20;;;;;;4970371;28;20057;-77
2023/03/28 07:56:32;;;;;;;8.05;2.90;;;8.80;61.40;;;;;;4954482;28;20414;-77
2023/03/28 07:58:57;;;;;;;9.23;2.78;;;8.90;61.60;;;;;;4954360;28;20043;-77
2023/03/28 08:01:23;;;;;;;8.35;2.80;;;9.00;61.40;;;;;;4954531;28;20034;-77
2023/03/28 08:03:49;;;;;;;9.23;3.08;;;9.00;61.30;;;;;;4970232;28;20486;-77
2023/03/28 08:06:16;;;;;;;7.57;2.70;;;9.10;61.00;;;;;;4969516;28;20046;-77
2023/03/28 08:08:42;;;;;;;7.28;2.53;;;9.20;60.50;;;;;;4954088;28;20514;-77
2023/03/28 08:11:11;;;;;;;6.55;2.15;;;9.30;60.20;;;;;;4970462;28;20078;-76
2023/03/28 08:13:36;;;;;;;10.55;2.55;;;9.40;60.10;;;;;;4969960;28;20118;-77
2023/03/28 08:16:02;;;;;;;10.05;2.55;;;9.40;59.80;;;;;;4970083;28;20135;-77
2023/03/28 08:18:28;;;;;;;5.82;2.33;;;9.60;59.80;;;;;;4954174;28;20071;-77
2023/03/28 08:21:00;;;;;;;4.65;2.30;;;9.70;59.70;;;;;;4954101;28;20074;-77
2023/03/28 08:23:26;;;;;;;5.35;1.70;;;9.80;59.30;;;;;;4954063;28;20086;-77
2023/03/28 08:26:03;;;;;;;4.55;1.90;;;10.00;59.30;;;;;;4954057;28;20540;-77
2023/03/28 08:28:30;;;;;;;4.82;1.20;;;10.20;57.90;;;;;;4969734;28;20039;-77
2023/03/28 08:30:56;;;;;;;6.30;2.08;;;10.30;57.20;;;;;;4954030;28;20061;-78
2023/03/28 08:33:22;;;;;;;5.40;1.60;;;10.50;56.40;;;;;;4954213;28;20137;-77
2023/03/28 08:35:50;;;;;;;7.80;2.22;;;10.70;56.50;;;;;;4954051;28;20483;-77
2023/03/28 08:38:17;;;;;;;6.47;1.73;;;10.90;55.40;;;;;;4977944;28;20070;-78
2023/03/28 08:41:12;;;;;;;4.63;1.13;;;11.10;55.20;;;;;;5054964;28;20050;-78
2023/03/28 08:44:09;;;;;;;5.88;1.15;;;11.30;54.50;;;;;;4958699;28;20137;-77
2023/03/28 08:46:36;;;;;;;7.00;1.73;;;11.60;53.70;;;;;;4950592;28;20080;-77
2023/03/28 08:49:10;;;;;;;7.28;2.10;;;11.70;52.60;;;;;;4982875;28;20051;-78
2023/03/28 08:51:39;;;;;;;6.60;1.25;;;11.90;51.80;;;;;;4966557;28;20562;-77
2023/03/28 08:54:25;;;;;;;5.45;1.20;;;12.00;50.00;;;;;;4934728;28;20095;-77
2023/03/28 08:56:55;;;;;;;7.30;1.83;;;12.10;50.00;;;;;;5060931;28;20071;-77
2023/03/28 08:59:58;;;;;;;6.72;1.77;;;12.20;49.90;;;;;;4969956;28;20043;-77
2023/03/28 09:02:26;;;;;;;4.05;1.20;;;12.30;49.00;;;;;;5071301;28;20520;-77
2023/03/28 09:04:53;;;;;;;5.80;1.77;;;12.30;49.10;;;;;;4969927;28;20134;-77
2023/03/28 09:07:35;;;;;;;3.53;1.38;;;12.40;48.10;;;;;;4953564;28;20498;-77
2023/03/28 09:10:19;;;;;;;6.82;1.70;;;12.50;46.30;;;;;;4953406;28;20085;-77
2023/03/28 09:13:02;;;;;;;7.00;1.17;;;12.50;46.40;;;;;;4969602;28;20046;-78
2023/03/28 09:15:40;;;;;;;5.30;1.38;;;12.60;45.70;;;;;;4953456;28;20043;-77
2023/03/28 09:18:25;;;;;;;4.20;1.00;;;12.60;46.10;;;;;;4956187;28;20379;-77
2023/03/28 09:21:17;;;;;;;3.40;1.02;;;12.70;45.20;;;;;;4973052;28;20387;-76
2023/03/28 09:24:06;;;;;;;3.47;1.00;;;12.70;46.50;;;;;;4956035;28;20035;-77
2023/03/28 09:26:36;;;;;;;6.30;2.08;;;12.80;46.30;;;;;;4972455;28;20046;-77
2023/03/28 09:29:17;;;;;;;4.78;1.20;;;12.90;45.50;;;;;;4972303;28;20035;-77
2023/03/28 09:31:48;;;;;;;5.43;1.92;;;12.90;45.20;;;;;;5064518;28;20039;-77
2023/03/28 09:34:26;;;;;;;4.80;1.35;;;13.00;44.60;;;;;;4956597;28;20129;-76
2023/03/28 09:36:56;;;;;;;3.92;1.17;;;13.10;44.30;;;;;;4972048;28;20035;-77
2023/03/28 09:39:32;;;;;;;3.58;1.13;;;13.10;43.20;;;;;;4972690;28;20035;-77
2023/03/28 09:42:14;;;;;;;3.88;1.15;;;13.10;43.70;;;;;;4973563;28;20117;-76
2023/03/28 09:44:51;;;;;;;5.97;2.05;;;13.20;43.10;;;;;;5093479;28;20485;-77
2023/03/28 09:47:17;;;;;;;4.32;1.10;;;13.20;42.60;;;;;;4991799;28;20042;-77
2023/03/28 09:49:43;;;;;;;3.38;1.23;;;13.20;43.10;;;;;;5077308;28;20038;-76
2023/03/28 09:52:22;;;;;;;5.05;1.20;;;13.20;43.50;;;;;;4963748;28;20038;-77
2023/03/28 09:54:49;;;;;;;5.28;1.33;;;13.30;43.90;;;;;;4973867;28;20441;-77
2023/03/28 09:57:14;;;;;;;3.67;1.20;;;13.30;43.20;;;;;;4991572;28;20133;-76
2023/03/28 09:59:40;;;;;;;4.25;1.30;;;13.30;43.00;;;;;;4991966;28;20121;-76
2023/03/28 10:02:24;;;;;;;3.63;1.40;;;13.30;42.80;;;;;;4991518;28;20046;-76
2023/03/28 10:04:51;;;;;;;3.30;1.40;;;13.20;42.30;;;;;;4972243;28;20387;-76
2023/03/28 10:07:41;;;;;;;4.82;1.52;;;13.20;42.90;;;;;;4972015;28;20062;-76
2023/03/28 10:10:20;;;;;;;5.28;1.27;;;13.20;43.00;;;;;;4972043;28;20043;-76
2023/03/28 10:12:47;;;;;;;3.58;1.30;;;13.20;43.50;;;;;;4971724;28;20085;-76
2023/03/28 10:15:49;;;;;;;4.72;1.60;;;13.20;43.60;;;;;;4955902;28;20039;-76
2023/03/28 10:18:25;;;;;;;5.53;2.58;;;13.10;43.40;;;;;;4945476;28;20054;-75
2023/03/28 10:20:51;;;;;;;4.70;1.35;;;13.10;43.60;;;;;;4969917;28;20310;-76
2023/03/28 10:23:21;;;;;;;5.85;2.10;;;13.00;43.50;;;;;;4971724;28;20038;-76
2023/03/28 10:25:51;;;;;;;4.78;1.63;;;13.00;42.70;;;;;;4971049;28;20038;-77
2023/03/28 10:28:32;;;;;;;3.92;1.55;;;13.00;43.00;;;;;;4970938;28;20039;-76
2023/03/28 10:31:00;;;;;;;3.28;1.27;;;13.00;43.20;;;;;;4971209;28;20074;-76
2023/03/28 10:33:41;;;;;;;3.15;1.67;;;12.90;43.50;;;;;;4955121;28;20043;-76
2023/03/28 10:36:11;;;;;;;6.90;1.85;;;12.90;43.10;;;;;;4986816;28;20053;-76
2023/03/28 10:38:44;;;;;;;5.78;2.03;;;12.90;43.20;;;;;;4984235;28;20076;-77
2023/03/28 10:41:30;;;;;;;5.03;1.77;;;12.90;42.00;;;;;;4986162;28;20398;-77
2023/03/28 10:43:56;;;;;;;8.13;2.53;;;12.90;43.00;;;;;;4986363;28;20053;-77
2023/03/28 10:46:36;;;;;;;5.32;1.63;;;12.90;42.90;;;;;;4972478;28;20414;-77
2023/03/28 10:49:12;;;;;;;4.28;1.60;;;13.00;43.80;;;;;;4983263;28;20172;-76
2023/03/28 10:51:40;;;;;;;4.60;1.73;;;13.00;43.90;;;;;;4983716;28;20129;-76
2023/03/28 10:54:24;;;;;;;7.82;2.63;;;13.00;44.10;;;;;;4984583;28;20141;-76
2023/03/28 10:56:55;;;;;;;3.42;1.75;;;13.00;42.70;;;;;;4985057;28;20121;-76
2023/03/28 10:59:41;;;;;;;4.75;2.03;;;13.00;42.80;;;;;;4984223;28;20042;-77
2023/03/28 11:02:16;;;;;;;5.85;2.53;;;13.00;43.10;;;;;;5068862;28;20046;-77
2023/03/28 11:05:20;;;;;;;3.85;2.05;;;13.00;42.60;;;;;;4983522;28;20100;-76
2023/03/28 11:08:24;;;;;;;9.85;2.10;;;12.90;42.80;;;;;;4991495;28;20474;-77
2023/03/28 11:11:12;;;;;;;6.85;1.70;;;12.90;43.20;;;;;;5002273;28;20046;-77
2023/03/28 11:13:45;;;;;;;6.60;2.45;;;12.90;42.60;;;;;;4954446;28;20095;-76
2023/03/28 11:16:34;;;;;;;6.22;2.17;;;12.90;42.50;;;;;;4970745;28;20045;-76
2023/03/28 11:19:15;;;;;;;5.78;2.05;;;12.90;42.80;;;;;;4971404;28;20057;-76
2023/03/28 11:22:23;;;;;;;6.75;2.13;;;12.90;43.20;;;;;;5005132;28;20394;-77
2023/03/28 11:25:08;;;;;;;7.70;2.30;;;12.90;42.50;;;;;;5043247;28;20137;-76
2023/03/28 11:27:47;;;;;;;5.28;1.80;;;12.80;42.50;;;;;;4972369;28;20117;-76
2023/03/28 11:30:27;;;;;;;9.18;2.58;;;12.80;44.20;;;;;;5060992;28;20073;-76
2023/03/28 11:33:17;;;;;;;4.43;2.30;;;12.80;44.60;;;;;;4954413;28;20058;-76
2023/03/28 11:36:13;;;;;;;6.75;2.08;;;12.80;44.30;;;;;;4955978;28;20042;-76
2023/03/28 11:39:00;;;;;;;5.78;2.20;;;12.90;44.10;;;;;;4971583;28;20096;-76
2023/03/28 11:41:31;;;;;;;4.25;2.00;;;12.90;43.90;;;;;;4973028;28;20138;-76
2023/03/28 11:44:17;;;;;;;4.60;2.00;;;12.90;44.00;;;;;;4984970;28;20042;-76
2023/03/28 11:46:49;;;;;;;5.22;2.40;;;12.90;43.60;;;;;;4982025;28;20068;-76
2023/03/28 11:49:24;;;;;;;7.65;3.03;;;12.90;42.90;;;;;;5002335;28;20104;-76
2023/03/28 11:52:15;;;;;;;5.45;1.98;;;13.00;42.50;;;;;;5059363;28;20043;-76
2023/03/28 11:54:48;;;;;;;5.25;2.08;;;13.00;43.40;;;;;;5042063;28;20493;-76
2023/03/28 11:57:30;;;;;;;8.02;3.00;;;13.10;42.50;;;;;;4970441;28;20053;-77
2023/03/28 11:59:56;;;;;;;5.88;2.50;;;13.10;40.90;;;;;;5041665;28;20053;-76
2023/03/28 12:02:44;;;;;;;5.93;2.05;;;13.00;41.70;;;;;;4982151;28;20039;-76
2023/03/28 12:05:10;;;;;;;5.30;1.83;;;13.10;42.00;;;;;;4985095;28;20049;-76
2023/03/28 12:07:57;;;;;;;6.63;2.28;;;13.00;41.90;;;;;;4951480;28;20042;-76
2023/03/28 12:10:39;;;;;;;6.07;2.67;;;13.00;41.40;;;;;;5000554;28;20483;-77
2023/03/28 12:13:17;;;;;;;4.00;2.15;;;13.00;41.30;;;;;;4963222;28;20125;-77
2023/03/28 12:16:11;;;;;;;8.45;2.75;;;13.00;41.40;;;;;;5070122;28;20113;-77
2023/03/28 12:18:51;;;;;;;5.00;2.33;;;13.00;41.80;;;;;;4943292;28;20051;-76
2023/03/28 12:21:26;;;;;;;8.23;2.35;;;13.00;41.30;;;;;;4970351;28;20406;-77
2023/03/28 12:24:41;;;;;;;5.88;2.30;;;12.90;41.50;;;;;;5002715;28;20138;-77
2023/03/28 12:27:19;;;;;;;4.57;2.10;;;12.90;41.50;;;;;;4966455;28;20516;-78
2023/03/28 12:30:00;;;;;;;7.72;2.83;;;12.90;41.00;;;;;;4967492;28;20098;-77
2023/03/28 12:32:50;;;;;;;6.28;2.00;;;12.80;41.10;;;;;;4967463;28;20047;-77
2023/03/28 12:35:35;;;;;;;4.40;2.03;;;12.70;40.30;;;;;;4952978;28;20046;-77
2023/03/28 12:38:29;;;;;;;4.78;1.88;;;12.60;41.30;;;;;;4952835;28;20038;-77
2023/03/28 12:41:06;;;;;;;6.10;2.25;;;12.50;42.20;;;;;;4970493;28;20066;-77
2023/03/28 12:43:47;;;;;;;6.47;2.58;;;12.50;40.90;;;;;;4970314;28;20582;-77
2023/03/28 12:46:17;;;;;;;5.13;2.13;;;12.40;40.90;;;;;;4966144;28;21406;-78
2023/03/28 12:48:52;;;;;;;4.85;2.10;;;12.30;40.80;;;;;;4972126;28;20117;-77
2023/03/28 12:51:32;;;;;;;6.07;2.17;;;12.20;40.70;;;;;;4968474;28;20039;-76
2023/03/28 12:54:04;;;;;;;4.85;1.92;;;12.10;40.90;;;;;;4970351;28;20521;-77
2023/03/28 12:56:30;;;;;;;4.72;2.00;;;12.10;41.80;;;;;;4970556;28;20046;-77
2023/03/28 12:58:56;;;;;;;6.88;2.85;;;12.00;42.10;;;;;;4991368;28;20398;-77
2023/03/28 13:01:45;;;;;;;3.58;1.58;;;12.00;42.30;;;;;;4971550;28;20046;-76
2023/03/28 13:04:49;;;;;;;5.10;2.55;;;12.00;42.50;;;;;;4971275;28;20053;-77
2023/03/28 13:07:33;;;;;;;6.70;1.85;;;12.00;42.50;;;;;;4972719;28;20157;-77
2023/03/28 13:09:58;;;;;;;6.50;2.28;;;12.00;41.80;;;;;;4975022;28;20046;-77
2023/03/28 13:12:48;;;;;;;4.10;2.28;;;11.90;41.40;;;;;;4977469;28;20050;-77
2023/03/28 13:15:15;;;;;;;4.75;2.15;;;11.90;40.80;;;;;;4970548;28;20037;-77
2023/03/28 13:18:22;;;;;;;5.07;1.75;;;11.80;40.70;;;;;;4955792;28;20047;-77
2023/03/28 13:20:50;;;;;;;5.80;2.03;;;11.80;40.40;;;;;;4972084;28;20038;-77
2023/03/28 13:23:20;;;;;;;6.15;2.30;;;11.70;40.10;;;;;;5062121;28;20034;-76